sensor_id;sensor_type;location;lat;lon;timestamp;pressure;altitude;pressure_sealevel;temperature;humidity
21821;BME280;11073;48.586;12.066;2023-03-31T00:00:18;96042.09;;;9.98;67.81
21821;BME280;11073;48.586;12.066;2023-03-31T00:03:08;96042.75;;;9.88;67.59
21821;BME280;11073;48.586;12.066;2023-03-31T00:05:59;96034.38;;;9.73;67.73
21821;BME280;11073;48.586;12.066;2023-03-31T00:08:48;96016.56;;;9.60;68.20
21821;BME280;11073;48.586;12.066;2023-03-31T00:11:39;96010.22;;;9.55;68.22
21821;BME280;11073;48.586;12.066;2023-03-31T00:14:28;96006.72;;;9.54;68.52
21821;BME280;11073;48.586;12.066;2023-03-31T00:17:17;96012.25;;;9.48;68.35
21821;BME280;11073;48.586;12.066;2023-03-31T00:20:08;96001.13;;;9.44;68.56
21821;BME280;11073;48.586;12.066;2023-03-31T00:22:59;95995.31;;;9.35;68.74
21821;BME280;11073;48.586;12.066;2023-03-31T00:25:48;95990.13;;;9.34;69.01
21821;BME280;11073;48.586;12.066;2023-03-31T00:28:37;95988.59;;;9.38;69.38
21821;BME280;11073;48.586;12.066;2023-03-31T00:31:26;95981.88;;;9.40;69.37
21821;BME280;11073;48.586;12.066;2023-03-31T00:34:17;95966.88;;;9.33;69.33
21821;BME280;11073;48.586;12.066;2023-03-31T00:37:07;95938.88;;;9.22;69.59
21821;BME280;11073;48.586;12.066;2023-03-31T00:39:56;95968.34;;;9.40;69.63
21821;BME280;11073;48.586;12.066;2023-03-31T00:42:46;95952.97;;;9.41;69.79
21821;BME280;11073;48.586;12.066;2023-03-31T00:45:35;95956.50;;;9.42;69.70
21821;BME280;11073;48.586;12.066;2023-03-31T00:48:24;95959.53;;;9.45;69.63
21821;BME280;11073;48.586;12.066;2023-03-31T00:51:15;95964.78;;;9.52;69.82
21821;BME280;11073;48.586;12.066;2023-03-31T00:54:06;95881.88;;;9.07;69.56
21821;BME280;11073;48.586;12.066;2023-03-31T00:56:55;95954.56;;;9.54;69.65
21821;BME280;11073;48.586;12.066;2023-03-31T00:59:54;95945.72;;;9.58;70.00
21821;BME280;11073;48.586;12.066;2023-03-31T01:02:47;95943.59;;;9.60;69.94
21821;BME280;11073;48.586;12.066;2023-03-31T01:05:43;95940.88;;;9.60;69.71
21821;BME280;11073;48.586;12.066;2023-03-31T01:08:34;95941.69;;;9.61;69.75
21821;BME280;11073;48.586;12.066;2023-03-31T01:11:27;95929.25;;;9.60;70.05
21821;BME280;11073;48.586;12.066;2023-03-31T01:14:18;95887.72;;;9.32;69.70
21821;BME280;11073;48.586;12.066;2023-03-31T01:17:07;95937.38;;;9.60;69.62
21821;BME280;11073;48.586;12.066;2023-03-31T01:20:08;95922.47;;;9.57;69.76
21821;BME280;11073;48.586;12.066;2023-03-31T01:23:37;95904.94;;;9.60;69.80
21821;BME280;11073;48.586;12.066;2023-03-31T01:26:41;95910.59;;;9.58;69.82
21821;BME280;11073;48.586;12.066;2023-03-31T01:30:07;95900.09;;;9.62;69.84
21821;BME280;11073;48.586;12.066;2023-03-31T01:40:22;95882.56;;;9.48;69.56
21821;BME280;11073;48.586;12.066;2023-03-31T01:43:18;95882.56;;;9.48;69.87
21821;BME280;11073;48.586;12.066;2023-03-31T01:46:17;95883.22;;;9.55;69.67
21821;BME280;11073;48.586;12.066;2023-03-31T01:49:15;95842.44;;;9.39;69.85
21821;BME280;11073;48.586;12.066;2023-03-31T01:52:09;95874.56;;;9.53;69.70
21821;BME280;11073;48.586;12.066;2023-03-31T01:55:08;95881.03;;;9.52;69.75
21821;BME280;11073;48.586;12.066;2023-03-31T01:58:05;95869.50;;;9.56;69.86
21821;BME280;11073;48.586;12.066;2023-03-31T02:00:58;95861.38;;;9.56;70.00
21821;BME280;11073;48.586;12.066;2023-03-31T02:03:52;95856.28;;;9.60;70.04
21821;BME280;11073;48.586;12.066;2023-03-31T02:06:46;95829.53;;;9.42;69.75
21821;BME280;11073;48.586;12.066;2023-03-31T02:09:42;95855.13;;;9.56;69.93
21821;BME280;11073;48.586;12.066;2023-03-31T02:12:33;95852.13;;;9.52;70.00
21821;BME280;11073;48.586;12.066;2023-03-31T02:15:27;95849.16;;;9.54;69.85
21821;BME280;11073;48.586;12.066;2023-03-31T02:18:20;95840.75;;;9.50;69.84
21821;BME280;11073;48.586;12.066;2023-03-31T02:21:13;95840.16;;;9.48;70.09
21821;BME280;11073;48.586;12.066;2023-03-31T02:24:06;95835.00;;;9.47;70.00
21821;BME280;11073;48.586;12.066;2023-03-31T02:27:03;95831.75;;;9.45;70.04
21821;BME280;11073;48.586;12.066;2023-03-31T02:29:53;95825.78;;;9.43;70.11
21821;BME280;11073;48.586;12.066;2023-03-31T02:32:44;95828.22;;;9.44;70.30
21821;BME280;11073;48.586;12.066;2023-03-31T02:35:34;95812.81;;;9.45;70.31
21821;BME280;11073;48.586;12.066;2023-03-31T02:38:23;95786.47;;;9.18;70.18
21821;BME280;11073;48.586;12.066;2023-03-31T02:41:13;95794.31;;;9.20;70.36
21821;BME280;11073;48.586;12.066;2023-03-31T02:44:02;95801.44;;;9.26;70.51
21821;BME280;11073;48.586;12.066;2023-03-31T02:46:52;95806.53;;;9.22;70.50
21821;BME280;11073;48.586;12.066;2023-03-31T02:49:47;95801.59;;;9.19;70.40
21821;BME280;11073;48.586;12.066;2023-03-31T02:52:48;95797.66;;;9.10;70.44
21821;BME280;11073;48.586;12.066;2023-03-31T02:55:55;95799.56;;;8.93;70.39
21821;BME280;11073;48.586;12.066;2023-03-31T02:58:56;95799.34;;;8.82;70.86
21821;BME280;11073;48.586;12.066;2023-03-31T03:01:59;95792.56;;;8.80;71.21
21821;BME280;11073;48.586;12.066;2023-03-31T03:05:04;95784.72;;;8.78;71.21
21821;BME280;11073;48.586;12.066;2023-03-31T03:08:07;95784.22;;;8.81;71.58
21821;BME280;11073;48.586;12.066;2023-03-31T03:11:07;95782.19;;;8.89;71.48
21821;BME280;11073;48.586;12.066;2023-03-31T03:14:09;95779.91;;;8.97;71.71
21821;BME280;11073;48.586;12.066;2023-03-31T03:17:05;95756.97;;;8.83;71.44
21821;BME280;11073;48.586;12.066;2023-03-31T03:20:00;95763.72;;;8.97;72.04
21821;BME280;11073;48.586;12.066;2023-03-31T03:22:50;95759.13;;;8.98;71.99
21821;BME280;11073;48.586;12.066;2023-03-31T03:25:40;95762.41;;;9.00;72.01
21821;BME280;11073;48.586;12.066;2023-03-31T03:28:30;95751.13;;;9.03;71.92
21821;BME280;11073;48.586;12.066;2023-03-31T03:31:20;95753.41;;;9.11;72.14
21821;BME280;11073;48.586;12.066;2023-03-31T03:34:10;95756.19;;;9.16;71.87
21821;BME280;11073;48.586;12.066;2023-03-31T03:37:01;95753.19;;;9.13;71.97
21821;BME280;11073;48.586;12.066;2023-03-31T03:39:50;95757.16;;;9.10;72.03
21821;BME280;11073;48.586;12.066;2023-03-31T03:42:39;95755.38;;;9.16;72.26
21821;BME280;11073;48.586;12.066;2023-03-31T03:45:28;95739.34;;;9.09;72.26
21821;BME280;11073;48.586;12.066;2023-03-31T03:48:17;95739.59;;;9.07;72.58
21821;BME280;11073;48.586;12.066;2023-03-31T03:51:06;95752.44;;;9.17;72.35
21821;BME280;11073;48.586;12.066;2023-03-31T03:53:56;95751.84;;;9.15;72.68
21821;BME280;11073;48.586;12.066;2023-03-31T03:56:45;95764.59;;;9.20;72.83
21821;BME280;11073;48.586;12.066;2023-03-31T03:59:34;95763.06;;;9.24;72.73
21821;BME280;11073;48.586;12.066;2023-03-31T04:02:23;95766.91;;;9.28;72.35
21821;BME280;11073;48.586;12.066;2023-03-31T04:05:15;95768.03;;;9.32;72.27
21821;BME280;11073;48.586;12.066;2023-03-31T04:08:04;95762.16;;;9.35;72.40
21821;BME280;11073;48.586;12.066;2023-03-31T04:10:56;95766.81;;;9.39;72.46
21821;BME280;11073;48.586;12.066;2023-03-31T04:13:46;95750.47;;;9.29;72.36
21821;BME280;11073;48.586;12.066;2023-03-31T04:16:36;95753.31;;;9.39;72.72
21821;BME280;11073;48.586;12.066;2023-03-31T04:19:25;95742.66;;;9.33;72.77
21821;BME280;11073;48.586;12.066;2023-03-31T04:22:14;95732.47;;;9.35;73.06
21821;BME280;11073;48.586;12.066;2023-03-31T04:25:08;95730.06;;;9.38;73.30
21821;BME280;11073;48.586;12.066;2023-03-31T04:28:03;95724.19;;;9.42;73.53
21821;BME280;11073;48.586;12.066;2023-03-31T04:30:53;95715.47;;;9.39;73.53
21821;BME280;11073;48.586;12.066;2023-03-31T04:33:45;95717.19;;;9.46;73.59
21821;BME280;11073;48.586;12.066;2023-03-31T04:36:34;95719.16;;;9.50;73.51
21821;BME280;11073;48.586;12.066;2023-03-31T04:39:30;95722.44;;;9.52;73.57
21821;BME280;11073;48.586;12.066;2023-03-31T04:42:19;95736.50;;;9.54;73.66
21821;BME280;11073;48.586;12.066;2023-03-31T04:45:10;95723.25;;;9.53;73.76
21821;BME280;11073;48.586;12.066;2023-03-31T04:48:00;95707.59;;;9.55;73.87
21821;BME280;11073;48.586;12.066;2023-03-31T04:50:49;95690.56;;;9.54;74.12
21821;BME280;11073;48.586;12.066;2023-03-31T04:53:38;95682.63;;;9.48;74.40
21821;BME280;11073;48.586;12.066;2023-03-31T04:56:28;95690.19;;;9.46;74.55
21821;BME280;11073;48.586;12.066;2023-03-31T04:59:17;95653.47;;;9.28;74.99
21821;BME280;11073;48.586;12.066;2023-03-31T05:02:08;95668.56;;;9.46;75.20
21821;BME280;11073;48.586;12.066;2023-03-31T05:04:57;95660.16;;;9.42;75.67
21821;BME280;11073;48.586;12.066;2023-03-31T05:07:46;95635.81;;;9.20;75.67
21821;BME280;11073;48.586;12.066;2023-03-31T05:10:35;95658.28;;;9.43;76.31
21821;BME280;11073;48.586;12.066;2023-03-31T05:13:24;95670.16;;;9.42;76.27
21821;BME280;11073;48.586;12.066;2023-03-31T05:16:13;95651.16;;;9.36;76.65
21821;BME280;11073;48.586;12.066;2023-03-31T05:19:04;95650.59;;;9.34;77.09
21821;BME280;11073;48.586;12.066;2023-03-31T05:21:53;95637.03;;;9.29;77.78
21821;BME280;11073;48.586;12.066;2023-03-31T05:24:42;95613.16;;;9.21;78.04
21821;BME280;11073;48.586;12.066;2023-03-31T05:27:30;95613.16;;;9.21;78.40
21821;BME280;11073;48.586;12.066;2023-03-31T05:30:20;95608.31;;;9.23;78.35
21821;BME280;11073;48.586;12.066;2023-03-31T05:33:09;95584.56;;;9.25;78.57
21821;BME280;11073;48.586;12.066;2023-03-31T05:36:02;95577.22;;;9.21;78.70
21821;BME280;11073;48.586;12.066;2023-03-31T05:38:52;95563.53;;;9.05;79.00
21821;BME280;11073;48.586;12.066;2023-03-31T05:41:41;95553.94;;;8.98;79.34
21821;BME280;11073;48.586;12.066;2023-03-31T05:44:30;95553.91;;;8.93;79.54
21821;BME280;11073;48.586;12.066;2023-03-31T05:47:19;95548.44;;;8.88;79.58
21821;BME280;11073;48.586;12.066;2023-03-31T05:50:10;95530.69;;;8.92;79.83
21821;BME280;11073;48.586;12.066;2023-03-31T05:53:03;95517.66;;;8.89;80.21
21821;BME280;11073;48.586;12.066;2023-03-31T05:55:56;95520.13;;;8.90;80.26
21821;BME280;11073;48.586;12.066;2023-03-31T05:58:45;95509.00;;;8.87;80.52
21821;BME280;11073;48.586;12.066;2023-03-31T06:01:34;95491.94;;;8.81;80.81
21821;BME280;11073;48.586;12.066;2023-03-31T06:04:23;95493.06;;;8.85;80.96
21821;BME280;11073;48.586;12.066;2023-03-31T06:07:12;95491.44;;;8.84;81.19
21821;BME280;11073;48.586;12.066;2023-03-31T06:10:03;95481.47;;;8.84;81.24
21821;BME280;11073;48.586;12.066;2023-03-31T06:12:54;95476.56;;;8.81;81.87
21821;BME280;11073;48.586;12.066;2023-03-31T06:15:51;95463.38;;;8.85;82.07
21821;BME280;11073;48.586;12.066;2023-03-31T06:18:41;95457.81;;;8.92;81.91
21821;BME280;11073;48.586;12.066;2023-03-31T06:21:29;95438.94;;;8.97;82.13
21821;BME280;11073;48.586;12.066;2023-03-31T06:24:18;95432.88;;;9.06;82.28
21821;BME280;11073;48.586;12.066;2023-03-31T06:27:09;95427.00;;;9.15;82.26
21821;BME280;11073;48.586;12.066;2023-03-31T06:29:58;95423.53;;;9.19;82.53
21821;BME280;11073;48.586;12.066;2023-03-31T06:32:47;95416.56;;;9.23;82.50
21821;BME280;11073;48.586;12.066;2023-03-31T06:35:37;95410.84;;;9.20;82.39
21821;BME280;11073;48.586;12.066;2023-03-31T06:38:27;95416.56;;;9.23;82.55
21821;BME280;11073;48.586;12.066;2023-03-31T06:41:17;95410.16;;;9.29;82.50
21821;BME280;11073;48.586;12.066;2023-03-31T06:44:08;95397.19;;;9.31;82.56
21821;BME280;11073;48.586;12.066;2023-03-31T06:46:58;95371.88;;;9.37;82.83
21821;BME280;11073;48.586;12.066;2023-03-31T06:49:47;95372.47;;;9.45;82.72
21821;BME280;11073;48.586;12.066;2023-03-31T06:52:36;95377.47;;;9.58;82.72
21821;BME280;11073;48.586;12.066;2023-03-31T06:55:25;95366.94;;;9.61;82.48
21821;BME280;11073;48.586;12.066;2023-03-31T06:58:14;95358.06;;;9.66;82.44
21821;BME280;11073;48.586;12.066;2023-03-31T07:01:05;95351.59;;;9.67;82.31
21821;BME280;11073;48.586;12.066;2023-03-31T07:03:55;95357.59;;;9.74;82.62
21821;BME280;11073;48.586;12.066;2023-03-31T07:06:44;95356.81;;;9.79;82.54
21821;BME280;11073;48.586;12.066;2023-03-31T07:09:33;95355.22;;;9.83;82.35
21821;BME280;11073;48.586;12.066;2023-03-31T07:12:22;95353.84;;;9.80;82.31
21821;BME280;11073;48.586;12.066;2023-03-31T07:15:11;95360.56;;;9.73;82.34
21821;BME280;11073;48.586;12.066;2023-03-31T07:18:02;95354.34;;;9.77;82.67
21821;BME280;11073;48.586;12.066;2023-03-31T07:20:51;95363.00;;;9.74;82.51
21821;BME280;11073;48.586;12.066;2023-03-31T07:23:40;95383.56;;;9.80;82.41
21821;BME280;11073;48.586;12.066;2023-03-31T07:26:29;95401.69;;;9.85;82.45
21821;BME280;11073;48.586;12.066;2023-03-31T07:29:19;95423.63;;;9.88;82.61
21821;BME280;11073;48.586;12.066;2023-03-31T07:32:09;95436.56;;;9.81;82.30
21821;BME280;11073;48.586;12.066;2023-03-31T07:34:59;95445.78;;;9.85;82.64
21821;BME280;11073;48.586;12.066;2023-03-31T07:37:49;95469.53;;;9.83;82.52
21821;BME280;11073;48.586;12.066;2023-03-31T07:40:39;95477.06;;;9.76;82.66
21821;BME280;11073;48.586;12.066;2023-03-31T07:43:28;95479.13;;;9.69;82.38
21821;BME280;11073;48.586;12.066;2023-03-31T07:46:20;95493.19;;;9.66;82.50
21821;BME280;11073;48.586;12.066;2023-03-31T07:49:09;95485.13;;;9.71;82.64
21821;BME280;11073;48.586;12.066;2023-03-31T07:52:03;95483.44;;;9.65;82.89
21821;BME280;11073;48.586;12.066;2023-03-31T07:54:52;95483.47;;;9.70;82.85
21821;BME280;11073;48.586;12.066;2023-03-31T07:57:41;95484.88;;;9.73;82.88
21821;BME280;11073;48.586;12.066;2023-03-31T08:00:32;95494.06;;;9.72;82.84
21821;BME280;11073;48.586;12.066;2023-03-31T08:03:21;95487.25;;;9.69;82.96
21821;BME280;11073;48.586;12.066;2023-03-31T08:06:11;95488.03;;;9.64;82.88
21821;BME280;11073;48.586;12.066;2023-03-31T08:09:06;95480.75;;;9.65;83.11
21821;BME280;11073;48.586;12.066;2023-03-31T08:11:55;95465.53;;;9.59;82.92
21821;BME280;11073;48.586;12.066;2023-03-31T08:14:44;95439.06;;;9.61;83.21
21821;BME280;11073;48.586;12.066;2023-03-31T08:17:32;95387.47;;;9.62;83.36
21821;BME280;11073;48.586;12.066;2023-03-31T08:20:22;95347.22;;;9.61;83.83
21821;BME280;11073;48.586;12.066;2023-03-31T08:23:10;95341.38;;;9.74;84.15
21821;BME280;11073;48.586;12.066;2023-03-31T08:26:11;95323.59;;;9.83;84.19
21821;BME280;11073;48.586;12.066;2023-03-31T08:29:04;95340.09;;;9.87;84.55
21821;BME280;11073;48.586;12.066;2023-03-31T08:31:53;95337.66;;;9.85;84.56
21821;BME280;11073;48.586;12.066;2023-03-31T08:34:42;95337.69;;;9.90;84.82
21821;BME280;11073;48.586;12.066;2023-03-31T08:37:32;95343.09;;;9.90;85.30
21821;BME280;11073;48.586;12.066;2023-03-31T08:40:23;95346.97;;;10.00;85.31
21821;BME280;11073;48.586;12.066;2023-03-31T08:43:19;95323.94;;;9.97;85.37
21821;BME280;11073;48.586;12.066;2023-03-31T08:46:11;95305.88;;;10.03;85.24
21821;BME280;11073;48.586;12.066;2023-03-31T08:49:03;95297.53;;;10.09;85.50
21821;BME280;11073;48.586;12.066;2023-03-31T08:51:56;95282.94;;;10.15;85.69
21821;BME280;11073;48.586;12.066;2023-03-31T08:54:51;95284.50;;;10.06;85.49
21821;BME280;11073;48.586;12.066;2023-03-31T08:57:51;95265.91;;;10.15;86.01
21821;BME280;11073;48.586;12.066;2023-03-31T09:00:51;95269.69;;;10.19;85.96
21821;BME280;11073;48.586;12.066;2023-03-31T09:03:47;95296.00;;;10.24;85.70
21821;BME280;11073;48.586;12.066;2023-03-31T09:06:41;95333.59;;;10.25;85.56
21821;BME280;11073;48.586;12.066;2023-03-31T09:09:37;95320.56;;;10.22;85.48
21821;BME280;11073;48.586;12.066;2023-03-31T09:12:34;95365.81;;;10.32;85.50
21821;BME280;11073;48.586;12.066;2023-03-31T09:15:28;95402.41;;;10.44;85.53
21821;BME280;11073;48.586;12.066;2023-03-31T09:18:26;95436.53;;;10.51;85.34
21821;BME280;11073;48.586;12.066;2023-03-31T09:21:27;95453.81;;;10.44;85.15
21821;BME280;11073;48.586;12.066;2023-03-31T09:24:20;95408.66;;;10.50;85.52
21821;BME280;11073;48.586;12.066;2023-03-31T09:27:11;95378.94;;;10.60;85.26
21821;BME280;11073;48.586;12.066;2023-03-31T09:30:02;95353.81;;;10.70;84.93
21821;BME280;11073;48.586;12.066;2023-03-31T09:32:56;95331.63;;;10.73;85.16
21821;BME280;11073;48.586;12.066;2023-03-31T09:35:48;95308.59;;;10.70;84.50
21821;BME280;11073;48.586;12.066;2023-03-31T09:38:39;95304.59;;;10.83;84.24
21821;BME280;11073;48.586;12.066;2023-03-31T09:41:30;95322.50;;;10.94;84.01
21821;BME280;11073;48.586;12.066;2023-03-31T09:44:26;95312.19;;;11.07;84.06
21821;BME280;11073;48.586;12.066;2023-03-31T09:47:18;95319.53;;;11.21;84.15
21821;BME280;11073;48.586;12.066;2023-03-31T09:50:10;95309.50;;;11.57;84.04
21821;BME280;11073;48.586;12.066;2023-03-31T09:53:01;95292.44;;;11.67;83.23
21821;BME280;11073;48.586;12.066;2023-03-31T09:55:53;95264.53;;;11.82;83.14
21821;BME280;11073;48.586;12.066;2023-03-31T09:58:44;95279.72;;;12.58;82.95
21821;BME280;11073;48.586;12.066;2023-03-31T10:01:35;95267.03;;;12.92;81.82
21821;BME280;11073;48.586;12.066;2023-03-31T10:04:25;95236.97;;;12.79;80.48
21821;BME280;11073;48.586;12.066;2023-03-31T10:07:20;95267.88;;;12.88;80.32
21821;BME280;11073;48.586;12.066;2023-03-31T10:10:24;95255.75;;;13.14;79.89
21821;BME280;11073;48.586;12.066;2023-03-31T10:13:18;95243.78;;;13.55;79.56
21821;BME280;11073;48.586;12.066;2023-03-31T10:16:12;95251.06;;;13.88;78.61
21821;BME280;11073;48.586;12.066;2023-03-31T10:19:12;95268.78;;;14.10;77.24
21821;BME280;11073;48.586;12.066;2023-03-31T10:22:03;95272.34;;;14.34;76.31
21821;BME280;11073;48.586;12.066;2023-03-31T10:24:53;95281.66;;;14.52;74.88
21821;BME280;11073;48.586;12.066;2023-03-31T10:27:56;95279.50;;;14.73;73.62
21821;BME280;11073;48.586;12.066;2023-03-31T10:30:47;95269.88;;;14.80;72.52
21821;BME280;11073;48.586;12.066;2023-03-31T10:33:41;95261.25;;;15.11;71.00
21821;BME280;11073;48.586;12.066;2023-03-31T10:36:32;95248.31;;;15.35;70.39
21821;BME280;11073;48.586;12.066;2023-03-31T10:39:28;95262.44;;;15.56;68.98
21821;BME280;11073;48.586;12.066;2023-03-31T10:42:20;95234.47;;;15.97;67.50
21821;BME280;11073;48.586;12.066;2023-03-31T10:45:17;95219.63;;;16.44;66.57
21821;BME280;11073;48.586;12.066;2023-03-31T10:48:26;95230.34;;;16.54;64.89
21821;BME280;11073;48.586;12.066;2023-03-31T10:51:18;95217.41;;;16.46;63.35
21821;BME280;11073;48.586;12.066;2023-03-31T10:54:07;95236.31;;;16.15;61.12
21821;BME280;11073;48.586;12.066;2023-03-31T10:56:58;95195.06;;;16.17;60.73
21821;BME280;11073;48.586;12.066;2023-03-31T11:00:00;95209.38;;;16.77;61.03
21821;BME280;11073;48.586;12.066;2023-03-31T11:03:26;95178.72;;;16.80;58.82
21821;BME280;11073;48.586;12.066;2023-03-31T11:06:28;95180.75;;;16.75;58.19
21821;BME280;11073;48.586;12.066;2023-03-31T11:09:33;95183.09;;;17.26;56.98
21821;BME280;11073;48.586;12.066;2023-03-31T11:12:28;95206.47;;;17.10;55.36
21821;BME280;11073;48.586;12.066;2023-03-31T11:15:22;95211.94;;;16.74;54.57
21821;BME280;11073;48.586;12.066;2023-03-31T11:18:26;95178.94;;;16.57;54.40
21821;BME280;11073;48.586;12.066;2023-03-31T11:21:24;95184.75;;;16.14;53.53
21821;BME280;11073;48.586;12.066;2023-03-31T11:24:25;95165.53;;;16.19;53.86
21821;BME280;11073;48.586;12.066;2023-03-31T11:27:27;95162.81;;;16.69;53.62
21821;BME280;11073;48.586;12.066;2023-03-31T11:30:26;95159.22;;;16.60;52.86
21821;BME280;11073;48.586;12.066;2023-03-31T11:33:32;95157.41;;;16.41;52.96
21821;BME280;11073;48.586;12.066;2023-03-31T11:36:36;95156.63;;;16.13;53.01
21821;BME280;11073;48.586;12.066;2023-03-31T11:39:37;95172.09;;;15.90;52.63
21821;BME280;11073;48.586;12.066;2023-03-31T11:42:34;95159.47;;;15.81;52.96
21821;BME280;11073;48.586;12.066;2023-03-31T11:45:28;95139.06;;;15.64;53.03
21821;BME280;11073;48.586;12.066;2023-03-31T11:48:28;95141.34;;;15.57;53.12
21821;BME280;11073;48.586;12.066;2023-03-31T11:51:20;95136.69;;;15.44;53.21
21821;BME280;11073;48.586;12.066;2023-03-31T11:54:17;95111.53;;;15.47;53.55
21821;BME280;11073;48.586;12.066;2023-03-31T11:57:11;95094.69;;;15.59;53.44
21821;BME280;11073;48.586;12.066;2023-03-31T12:00:06;95097.53;;;15.95;53.58
21821;BME280;11073;48.586;12.066;2023-03-31T12:03:05;95086.06;;;16.57;53.38
21821;BME280;11073;48.586;12.066;2023-03-31T12:06:02;95078.72;;;16.79;52.96
21821;BME280;11073;48.586;12.066;2023-03-31T12:09:04;95088.75;;;17.15;52.52
21821;BME280;11073;48.586;12.066;2023-03-31T12:12:00;95077.69;;;17.20;51.79
21821;BME280;11073;48.586;12.066;2023-03-31T12:14:54;95043.69;;;17.04;51.90
21821;BME280;11073;48.586;12.066;2023-03-31T12:17:46;95057.88;;;17.15;51.34
21821;BME280;11073;48.586;12.066;2023-03-31T12:20:40;95031.16;;;16.80;50.98
21821;BME280;11073;48.586;12.066;2023-03-31T12:23:35;95020.88;;;16.64;50.89
21821;BME280;11073;48.586;12.066;2023-03-31T12:26:34;95032.53;;;16.69;50.87
21821;BME280;11073;48.586;12.066;2023-03-31T12:29:29;95034.69;;;16.59;50.45
21821;BME280;11073;48.586;12.066;2023-03-31T12:32:21;95023.16;;;16.48;50.92
21821;BME280;11073;48.586;12.066;2023-03-31T12:35:16;95019.16;;;16.45;50.53
21821;BME280;11073;48.586;12.066;2023-03-31T12:38:17;94993.28;;;16.29;50.49
21821;BME280;11073;48.586;12.066;2023-03-31T12:41:18;94983.06;;;16.12;50.47
21821;BME280;11073;48.586;12.066;2023-03-31T12:44:20;94994.03;;;16.21;50.44
21821;BME280;11073;48.586;12.066;2023-03-31T12:47:31;94995.47;;;16.18;50.38
21821;BME280;11073;48.586;12.066;2023-03-31T12:50:44;94997.66;;;16.30;49.50
21821;BME280;11073;48.586;12.066;2023-03-31T12:53:46;94977.41;;;16.09;49.71
21821;BME280;11073;48.586;12.066;2023-03-31T12:57:04;95002.25;;;15.71;49.75
21821;BME280;11073;48.586;12.066;2023-03-31T13:00:24;94994.09;;;15.43;50.11
21821;BME280;11073;48.586;12.066;2023-03-31T13:03:42;95013.03;;;15.35;50.31
21821;BME280;11073;48.586;12.066;2023-03-31T13:06:53;95009.09;;;15.13;50.89
21821;BME280;11073;48.586;12.066;2023-03-31T13:09:46;94999.22;;;15.17;51.64
21821;BME280;11073;48.586;12.066;2023-03-31T13:12:41;95005.47;;;15.59;51.77
21821;BME280;11073;48.586;12.066;2023-03-31T13:15:50;95018.47;;;16.04;51.46
21821;BME280;11073;48.586;12.066;2023-03-31T13:18:49;94989.34;;;15.99;51.74
21821;BME280;11073;48.586;12.066;2023-03-31T13:21:52;94987.13;;;15.65;51.89
21821;BME280;11073;48.586;12.066;2023-03-31T13:24:41;94999.03;;;15.69;52.08
21821;BME280;11073;48.586;12.066;2023-03-31T13:27:32;94979.75;;;15.65;52.44
21821;BME280;11073;48.586;12.066;2023-03-31T13:30:52;94975.69;;;15.63;52.28
21821;BME280;11073;48.586;12.066;2023-03-31T13:33:43;94978.53;;;15.44;52.46
21821;BME280;11073;48.586;12.066;2023-03-31T13:36:48;94953.88;;;15.35;52.67
21821;BME280;11073;48.586;12.066;2023-03-31T13:40:12;94966.91;;;15.38;52.78
21821;BME280;11073;48.586;12.066;2023-03-31T13:43:28;94961.38;;;15.30;53.04
21821;BME280;11073;48.586;12.066;2023-03-31T13:46:40;94966.09;;;15.24;52.96
21821;BME280;11073;48.586;12.066;2023-03-31T13:49:52;95002.84;;;15.13;53.28
21821;BME280;11073;48.586;12.066;2023-03-31T13:52:47;95062.44;;;14.87;53.72
21821;BME280;11073;48.586;12.066;2023-03-31T14:02:53;95031.41;;;13.99;51.83
21821;BME280;11073;48.586;12.066;2023-03-31T14:05:47;95018.53;;;13.86;51.37
21821;BME280;11073;48.586;12.066;2023-03-31T14:08:46;95014.31;;;14.31;51.42
21821;BME280;11073;48.586;12.066;2023-03-31T14:11:38;95007.19;;;15.14;50.77
21821;BME280;11073;48.586;12.066;2023-03-31T14:14:27;95013.69;;;15.73;49.47
21821;BME280;11073;48.586;12.066;2023-03-31T14:17:17;94993.84;;;15.81;48.58
21821;BME280;11073;48.586;12.066;2023-03-31T14:20:25;95000.03;;;15.87;47.73
21821;BME280;11073;48.586;12.066;2023-03-31T14:23:30;95006.50;;;16.13;46.72
21821;BME280;11073;48.586;12.066;2023-03-31T14:26:35;95005.41;;;16.00;46.02
21821;BME280;11073;48.586;12.066;2023-03-31T14:29:35;95015.28;;;15.74;46.01
21821;BME280;11073;48.586;12.066;2023-03-31T14:32:36;95038.78;;;15.97;46.02
21821;BME280;11073;48.586;12.066;2023-03-31T14:35:32;95018.72;;;15.93;45.83
21821;BME280;11073;48.586;12.066;2023-03-31T14:38:26;95001.28;;;16.03;46.02
21821;BME280;11073;48.586;12.066;2023-03-31T14:41:19;95019.66;;;16.70;46.09
21821;BME280;11073;48.586;12.066;2023-03-31T14:44:16;95016.38;;;16.81;45.29
21821;BME280;11073;48.586;12.066;2023-03-31T14:47:12;95017.94;;;17.05;45.14
21821;BME280;11073;48.586;12.066;2023-03-31T14:50:04;95005.84;;;16.97;44.69
21821;BME280;11073;48.586;12.066;2023-03-31T14:52:56;95014.75;;;16.80;44.74
21821;BME280;11073;48.586;12.066;2023-03-31T14:55:46;95004.47;;;16.64;44.52
21821;BME280;11073;48.586;12.066;2023-03-31T14:58:48;95014.22;;;16.34;44.84
21821;BME280;11073;48.586;12.066;2023-03-31T15:01:39;95013.75;;;15.95;44.66
21821;BME280;11073;48.586;12.066;2023-03-31T15:04:29;95013.03;;;15.90;44.85
21821;BME280;11073;48.586;12.066;2023-03-31T15:07:29;95026.38;;;15.78;44.81
21821;BME280;11073;48.586;12.066;2023-03-31T15:10:20;95040.63;;;15.61;45.08
21821;BME280;11073;48.586;12.066;2023-03-31T15:13:11;95032.13;;;15.49;45.14
21821;BME280;11073;48.586;12.066;2023-03-31T15:16:19;95014.69;;;15.22;45.20
21821;BME280;11073;48.586;12.066;2023-03-31T15:19:14;95015.56;;;15.17;45.33
21821;BME280;11073;48.586;12.066;2023-03-31T15:22:10;94997.19;;;14.96;45.61
21821;BME280;11073;48.586;12.066;2023-03-31T15:25:00;95020.50;;;15.02;46.00
21821;BME280;11073;48.586;12.066;2023-03-31T15:27:52;95025.13;;;14.87;46.01
21821;BME280;11073;48.586;12.066;2023-03-31T15:30:42;95014.59;;;14.81;46.22